sensor_id;sensor_type;location;lat;lon;timestamp;P1;durP1;ratioP1;P2;durP2;ratioP2
9541;SDS011;4809;48.224;8.572;2023-07-16T00:00:28;1.20;;;1.10;;
9541;SDS011;4809;48.224;8.572;2023-07-16T00:02:54;1.35;;;1.25;;
9541;SDS011;4809;48.224;8.572;2023-07-16T00:05:19;1.60;;;1.20;;
9541;SDS011;4809;48.224;8.572;2023-07-16T00:07:46;1.50;;;1.40;;
9541;SDS011;4809;48.224;8.572;2023-07-16T00:10:12;1.42;;;1.33;;
9541;SDS011;4809;48.224;8.572;2023-07-16T00:12:37;1.85;;;1.50;;
9541;SDS011;4809;48.224;8.572;2023-07-16T00:15:03;1.33;;;1.30;;
9541;SDS011;4809;48.224;8.572;2023-07-16T00:17:31;1.35;;;1.25;;
9541;SDS011;4809;48.224;8.572;2023-07-16T00:19:57;1.52;;;1.40;;
9541;SDS011;4809;48.224;8.572;2023-07-16T00:22:23;2.58;;;1.45;;
9541;SDS011;4809;48.224;8.572;2023-07-16T00:24:48;2.00;;;1.30;;
9541;SDS011;4809;48.224;8.572;2023-07-16T00:27:14;1.50;;;1.40;;
9541;SDS011;4809;48.224;8.572;2023-07-16T00:29:40;1.50;;;1.40;;
9541;SDS011;4809;48.224;8.572;2023-07-16T00:32:06;1.38;;;1.27;;
9541;SDS011;4809;48.224;8.572;2023-07-16T00:34:31;2.30;;;1.38;;
9541;SDS011;4809;48.224;8.572;2023-07-16T00:36:57;3.40;;;1.33;;
9541;SDS011;4809;48.224;8.572;2023-07-16T00:39:27;1.20;;;1.20;;
9541;SDS011;4809;48.224;8.572;2023-07-16T00:41:53;1.63;;;1.30;;
9541;SDS011;4809;48.224;8.572;2023-07-16T00:44:19;1.52;;;1.33;;
9541;SDS011;4809;48.224;8.572;2023-07-16T00:46:44;1.60;;;1.50;;
9541;SDS011;4809;48.224;8.572;2023-07-16T00:49:10;1.70;;;1.42;;
9541;SDS011;4809;48.224;8.572;2023-07-16T00:51:36;4.15;;;1.60;;
9541;SDS011;4809;48.224;8.572;2023-07-16T00:54:02;2.20;;;1.20;;
9541;SDS011;4809;48.224;8.572;2023-07-16T00:56:28;1.50;;;1.40;;
9541;SDS011;4809;48.224;8.572;2023-07-16T00:58:54;2.83;;;1.58;;
9541;SDS011;4809;48.224;8.572;2023-07-16T01:01:20;2.20;;;1.50;;
9541;SDS011;4809;48.224;8.572;2023-07-16T01:03:45;3.22;;;1.60;;
9541;SDS011;4809;48.224;8.572;2023-07-16T01:06:22;5.60;;;1.60;;
9541;SDS011;4809;48.224;8.572;2023-07-16T01:09:10;2.28;;;1.58;;
9541;SDS011;4809;48.224;8.572;2023-07-16T01:11:43;2.65;;;1.75;;
9541;SDS011;4809;48.224;8.572;2023-07-16T01:14:10;4.65;;;1.80;;
9541;SDS011;4809;48.224;8.572;2023-07-16T01:16:37;4.53;;;1.90;;
9541;SDS011;4809;48.224;8.572;2023-07-16T01:19:02;2.50;;;1.80;;
9541;SDS011;4809;48.224;8.572;2023-07-16T01:27:33;3.25;;;1.80;;
9541;SDS011;4809;48.224;8.572;2023-07-16T01:30:08;2.30;;;1.77;;
9541;SDS011;4809;48.224;8.572;2023-07-16T01:32:36;3.05;;;1.70;;
9541;SDS011;4809;48.224;8.572;2023-07-16T01:35:03;4.20;;;1.60;;
9541;SDS011;4809;48.224;8.572;2023-07-16T01:37:30;2.35;;;1.70;;
9541;SDS011;4809;48.224;8.572;2023-07-16T01:39:57;2.30;;;1.50;;
9541;SDS011;4809;48.224;8.572;2023-07-16T01:42:22;1.98;;;1.70;;
9541;SDS011;4809;48.224;8.572;2023-07-16T01:44:48;2.17;;;1.67;;
9541;SDS011;4809;48.224;8.572;2023-07-16T01:47:15;3.20;;;1.50;;
9541;SDS011;4809;48.224;8.572;2023-07-16T01:50:08;3.63;;;1.60;;
9541;SDS011;4809;48.224;8.572;2023-07-16T01:52:34;2.28;;;1.73;;
9541;SDS011;4809;48.224;8.572;2023-07-16T01:54:59;2.80;;;1.60;;
9541;SDS011;4809;48.224;8.572;2023-07-16T01:57:25;4.00;;;1.80;;
9541;SDS011;4809;48.224;8.572;2023-07-16T01:59:51;1.67;;;1.58;;
9541;SDS011;4809;48.224;8.572;2023-07-16T02:02:16;2.65;;;1.77;;
9541;SDS011;4809;48.224;8.572;2023-07-16T02:04:42;1.63;;;1.52;;
9541;SDS011;4809;48.224;8.572;2023-07-16T02:07:07;1.70;;;1.60;;
9541;SDS011;4809;48.224;8.572;2023-07-16T02:09:33;1.70;;;1.60;;
9541;SDS011;4809;48.224;8.572;2023-07-16T02:12:00;2.00;;;1.75;;
9541;SDS011;4809;48.224;8.572;2023-07-16T02:14:26;2.55;;;1.70;;
9541;SDS011;4809;48.224;8.572;2023-07-16T02:16:51;2.60;;;1.70;;
9541;SDS011;4809;48.224;8.572;2023-07-16T02:19:17;2.28;;;1.80;;
9541;SDS011;4809;48.224;8.572;2023-07-16T02:21:42;3.22;;;1.75;;
9541;SDS011;4809;48.224;8.572;2023-07-16T02:24:08;2.08;;;1.77;;
9541;SDS011;4809;48.224;8.572;2023-07-16T02:26:33;1.70;;;1.60;;
9541;SDS011;4809;48.224;8.572;2023-07-16T02:28:59;1.95;;;1.85;;
9541;SDS011;4809;48.224;8.572;2023-07-16T02:31:25;1.77;;;1.67;;
9541;SDS011;4809;48.224;8.572;2023-07-16T02:33:50;2.83;;;1.85;;
9541;SDS011;4809;48.224;8.572;2023-07-16T02:36:16;2.70;;;1.77;;
9541;SDS011;4809;48.224;8.572;2023-07-16T02:38:42;3.08;;;1.67;;
9541;SDS011;4809;48.224;8.572;2023-07-16T02:41:08;1.75;;;1.60;;
9541;SDS011;4809;48.224;8.572;2023-07-16T02:43:33;1.88;;;1.77;;
9541;SDS011;4809;48.224;8.572;2023-07-16T02:45:59;1.98;;;1.75;;
9541;SDS011;4809;48.224;8.572;2023-07-16T02:48:25;1.80;;;1.70;;
9541;SDS011;4809;48.224;8.572;2023-07-16T02:50:50;2.55;;;1.75;;
9541;SDS011;4809;48.224;8.572;2023-07-16T02:53:16;1.98;;;1.77;;
9541;SDS011;4809;48.224;8.572;2023-07-16T02:55:42;2.13;;;1.73;;
9541;SDS011;4809;48.224;8.572;2023-07-16T02:58:10;3.10;;;1.70;;
9541;SDS011;4809;48.224;8.572;2023-07-16T03:00:35;2.03;;;1.90;;
9541;SDS011;4809;48.224;8.572;2023-07-16T03:03:01;2.17;;;1.80;;
9541;SDS011;4809;48.224;8.572;2023-07-16T03:05:27;2.75;;;1.85;;
9541;SDS011;4809;48.224;8.572;2023-07-16T03:07:53;2.63;;;1.73;;
9541;SDS011;4809;48.224;8.572;2023-07-16T03:10:19;2.38;;;1.70;;
9541;SDS011;4809;48.224;8.572;2023-07-16T03:12:46;1.80;;;1.70;;
9541;SDS011;4809;48.224;8.572;2023-07-16T03:15:11;3.88;;;1.65;;
9541;SDS011;4809;48.224;8.572;2023-07-16T03:17:37;1.92;;;1.80;;
9541;SDS011;4809;48.224;8.572;2023-07-16T03:20:03;2.78;;;1.60;;
9541;SDS011;4809;48.224;8.572;2023-07-16T03:22:30;3.55;;;1.90;;
9541;SDS011;4809;48.224;8.572;2023-07-16T03:24:56;2.53;;;1.80;;
9541;SDS011;4809;48.224;8.572;2023-07-16T03:27:21;3.47;;;1.88;;
9541;SDS011;4809;48.224;8.572;2023-07-16T03:29:47;4.45;;;2.05;;
9541;SDS011;4809;48.224;8.572;2023-07-16T03:32:13;2.55;;;1.83;;
9541;SDS011;4809;48.224;8.572;2023-07-16T03:34:38;2.45;;;1.80;;
9541;SDS011;4809;48.224;8.572;2023-07-16T03:37:04;5.70;;;1.90;;
9541;SDS011;4809;48.224;8.572;2023-07-16T03:39:29;5.38;;;2.17;;
9541;SDS011;4809;48.224;8.572;2023-07-16T03:41:55;3.22;;;1.75;;
9541;SDS011;4809;48.224;8.572;2023-07-16T03:44:21;3.45;;;1.88;;
9541;SDS011;4809;48.224;8.572;2023-07-16T03:46:46;3.67;;;1.77;;
9541;SDS011;4809;48.224;8.572;2023-07-16T03:49:12;3.53;;;2.00;;
9541;SDS011;4809;48.224;8.572;2023-07-16T03:51:37;6.00;;;2.08;;
9541;SDS011;4809;48.224;8.572;2023-07-16T03:54:03;5.43;;;2.25;;
9541;SDS011;4809;48.224;8.572;2023-07-16T03:56:29;6.78;;;2.33;;
9541;SDS011;4809;48.224;8.572;2023-07-16T03:58:54;4.20;;;2.15;;
9541;SDS011;4809;48.224;8.572;2023-07-16T04:01:20;6.55;;;2.25;;
9541;SDS011;4809;48.224;8.572;2023-07-16T04:03:45;4.38;;;1.90;;
9541;SDS011;4809;48.224;8.572;2023-07-16T04:06:11;2.38;;;1.98;;
9541;SDS011;4809;48.224;8.572;2023-07-16T04:08:37;2.85;;;1.90;;
9541;SDS011;4809;48.224;8.572;2023-07-16T04:11:04;2.50;;;1.80;;
9541;SDS011;4809;48.224;8.572;2023-07-16T04:13:30;4.97;;;1.95;;
9541;SDS011;4809;48.224;8.572;2023-07-16T04:15:56;5.53;;;2.00;;
9541;SDS011;4809;48.224;8.572;2023-07-16T04:18:22;4.47;;;2.00;;
9541;SDS011;4809;48.224;8.572;2023-07-16T04:20:48;3.00;;;1.88;;
9541;SDS011;4809;48.224;8.572;2023-07-16T04:23:14;3.38;;;1.88;;
9541;SDS011;4809;48.224;8.572;2023-07-16T04:25:40;3.97;;;2.13;;
9541;SDS011;4809;48.224;8.572;2023-07-16T04:28:06;3.33;;;2.00;;
9541;SDS011;4809;48.224;8.572;2023-07-16T04:30:31;2.35;;;1.77;;
9541;SDS011;4809;48.224;8.572;2023-07-16T04:32:57;3.85;;;2.00;;
9541;SDS011;4809;48.224;8.572;2023-07-16T04:35:23;3.53;;;1.90;;
9541;SDS011;4809;48.224;8.572;2023-07-16T04:37:48;2.22;;;1.90;;
9541;SDS011;4809;48.224;8.572;2023-07-16T04:40:14;4.43;;;2.08;;
9541;SDS011;4809;48.224;8.572;2023-07-16T04:42:40;3.33;;;1.92;;
9541;SDS011;4809;48.224;8.572;2023-07-16T04:45:05;2.63;;;2.10;;
9541;SDS011;4809;48.224;8.572;2023-07-16T04:47:31;2.17;;;1.92;;
9541;SDS011;4809;48.224;8.572;2023-07-16T04:50:00;5.38;;;2.15;;
9541;SDS011;4809;48.224;8.572;2023-07-16T04:52:26;5.32;;;2.20;;
9541;SDS011;4809;48.224;8.572;2023-07-16T04:54:51;2.78;;;2.20;;
9541;SDS011;4809;48.224;8.572;2023-07-16T04:57:17;4.18;;;1.95;;
9541;SDS011;4809;48.224;8.572;2023-07-16T04:59:43;3.00;;;1.90;;
9541;SDS011;4809;48.224;8.572;2023-07-16T05:02:08;2.70;;;1.88;;
9541;SDS011;4809;48.224;8.572;2023-07-16T05:04:34;4.20;;;1.90;;
9541;SDS011;4809;48.224;8.572;2023-07-16T05:07:01;3.88;;;2.20;;
9541;SDS011;4809;48.224;8.572;2023-07-16T05:09:27;2.95;;;1.88;;
9541;SDS011;4809;48.224;8.572;2023-07-16T05:11:53;2.80;;;2.10;;
9541;SDS011;4809;48.224;8.572;2023-07-16T05:14:18;3.70;;;1.98;;
9541;SDS011;4809;48.224;8.572;2023-07-16T05:16:44;2.72;;;1.92;;
9541;SDS011;4809;48.224;8.572;2023-07-16T05:19:10;4.47;;;2.30;;
9541;SDS011;4809;48.224;8.572;2023-07-16T05:21:35;2.42;;;1.75;;
9541;SDS011;4809;48.224;8.572;2023-07-16T05:24:01;4.10;;;1.95;;
9541;SDS011;4809;48.224;8.572;2023-07-16T05:26:27;3.08;;;2.03;;
9541;SDS011;4809;48.224;8.572;2023-07-16T05:28:53;3.22;;;2.03;;
9541;SDS011;4809;48.224;8.572;2023-07-16T05:31:18;2.33;;;2.00;;
9541;SDS011;4809;48.224;8.572;2023-07-16T05:33:44;2.92;;;1.70;;
9541;SDS011;4809;48.224;8.572;2023-07-16T05:36:09;3.22;;;1.88;;
9541;SDS011;4809;48.224;8.572;2023-07-16T05:38:35;3.25;;;2.03;;
9541;SDS011;4809;48.224;8.572;2023-07-16T05:41:01;3.35;;;1.75;;
9541;SDS011;4809;48.224;8.572;2023-07-16T05:43:28;3.60;;;1.95;;
9541;SDS011;4809;48.224;8.572;2023-07-16T05:45:53;2.80;;;2.05;;
9541;SDS011;4809;48.224;8.572;2023-07-16T05:48:19;3.00;;;1.90;;
9541;SDS011;4809;48.224;8.572;2023-07-16T05:50:45;3.17;;;1.88;;
9541;SDS011;4809;48.224;8.572;2023-07-16T05:53:11;2.95;;;2.00;;
9541;SDS011;4809;48.224;8.572;2023-07-16T05:55:39;4.03;;;2.10;;
9541;SDS011;4809;48.224;8.572;2023-07-16T05:58:05;3.60;;;2.00;;
9541;SDS011;4809;48.224;8.572;2023-07-16T06:00:30;2.95;;;2.10;;
9541;SDS011;4809;48.224;8.572;2023-07-16T06:02:56;3.70;;;1.90;;
9541;SDS011;4809;48.224;8.572;2023-07-16T06:05:22;3.58;;;1.90;;
9541;SDS011;4809;48.224;8.572;2023-07-16T06:07:49;4.55;;;1.98;;
9541;SDS011;4809;48.224;8.572;2023-07-16T06:10:15;3.50;;;2.03;;
9541;SDS011;4809;48.224;8.572;2023-07-16T06:12:41;2.45;;;1.98;;
9541;SDS011;4809;48.224;8.572;2023-07-16T06:15:06;4.03;;;2.08;;
9541;SDS011;4809;48.224;8.572;2023-07-16T06:17:33;4.78;;;2.10;;
9541;SDS011;4809;48.224;8.572;2023-07-16T06:19:58;6.50;;;2.40;;
9541;SDS011;4809;48.224;8.572;2023-07-16T06:22:24;4.35;;;2.08;;
9541;SDS011;4809;48.224;8.572;2023-07-16T06:24:49;5.68;;;2.10;;
9541;SDS011;4809;48.224;8.572;2023-07-16T06:27:15;5.05;;;2.10;;
9541;SDS011;4809;48.224;8.572;2023-07-16T06:29:41;4.63;;;2.20;;
9541;SDS011;4809;48.224;8.572;2023-07-16T06:32:06;2.80;;;2.00;;
9541;SDS011;4809;48.224;8.572;2023-07-16T06:34:33;3.85;;;2.08;;
9541;SDS011;4809;48.224;8.572;2023-07-16T06:36:59;3.85;;;2.08;;
9541;SDS011;4809;48.224;8.572;2023-07-16T06:39:25;3.88;;;2.10;;
9541;SDS011;4809;48.224;8.572;2023-07-16T06:41:50;4.28;;;2.20;;
9541;SDS011;4809;48.224;8.572;2023-07-16T06:44:16;3.05;;;2.10;;
9541;SDS011;4809;48.224;8.572;2023-07-16T06:46:41;3.10;;;2.10;;
9541;SDS011;4809;48.224;8.572;2023-07-16T06:49:07;3.80;;;1.90;;
9541;SDS011;4809;48.224;8.572;2023-07-16T06:51:33;3.80;;;2.10;;
9541;SDS011;4809;48.224;8.572;2023-07-16T06:53:59;4.47;;;2.10;;
9541;SDS011;4809;48.224;8.572;2023-07-16T06:56:25;4.28;;;2.30;;
9541;SDS011;4809;48.224;8.572;2023-07-16T06:58:50;3.47;;;1.98;;
9541;SDS011;4809;48.224;8.572;2023-07-16T07:01:16;3.88;;;1.90;;
9541;SDS011;4809;48.224;8.572;2023-07-16T07:03:42;2.78;;;2.00;;
9541;SDS011;4809;48.224;8.572;2023-07-16T07:06:07;3.53;;;2.10;;
9541;SDS011;4809;48.224;8.572;2023-07-16T07:08:35;5.38;;;2.30;;
9541;SDS011;4809;48.224;8.572;2023-07-16T07:11:01;2.75;;;1.90;;
9541;SDS011;4809;48.224;8.572;2023-07-16T07:13:27;3.88;;;2.28;;
9541;SDS011;4809;48.224;8.572;2023-07-16T07:15:54;3.83;;;2.05;;
9541;SDS011;4809;48.224;8.572;2023-07-16T07:18:20;4.10;;;2.15;;
9541;SDS011;4809;48.224;8.572;2023-07-16T07:20:46;2.55;;;2.13;;
9541;SDS011;4809;48.224;8.572;2023-07-16T07:23:12;4.05;;;2.00;;
9541;SDS011;4809;48.224;8.572;2023-07-16T07:25:38;3.47;;;2.00;;
9541;SDS011;4809;48.224;8.572;2023-07-16T07:28:04;5.78;;;2.40;;
9541;SDS011;4809;48.224;8.572;2023-07-16T07:30:30;3.65;;;2.08;;
9541;SDS011;4809;48.224;8.572;2023-07-16T07:32:55;3.17;;;2.20;;
9541;SDS011;4809;48.224;8.572;2023-07-16T07:35:21;4.82;;;2.20;;
9541;SDS011;4809;48.224;8.572;2023-07-16T07:37:47;4.30;;;2.00;;
9541;SDS011;4809;48.224;8.572;2023-07-16T07:40:12;3.42;;;2.10;;
9541;SDS011;4809;48.224;8.572;2023-07-16T07:42:38;4.05;;;2.33;;
9541;SDS011;4809;48.224;8.572;2023-07-16T07:45:04;3.97;;;2.13;;
9541;SDS011;4809;48.224;8.572;2023-07-16T07:47:30;4.22;;;2.10;;
9541;SDS011;4809;48.224;8.572;2023-07-16T07:49:56;2.65;;;1.98;;
9541;SDS011;4809;48.224;8.572;2023-07-16T07:52:21;4.13;;;2.10;;
9541;SDS011;4809;48.224;8.572;2023-07-16T07:54:47;3.97;;;2.20;;
9541;SDS011;4809;48.224;8.572;2023-07-16T07:57:13;5.07;;;2.58;;
9541;SDS011;4809;48.224;8.572;2023-07-16T07:59:39;5.85;;;2.20;;
9541;SDS011;4809;48.224;8.572;2023-07-16T08:02:05;2.67;;;2.00;;
9541;SDS011;4809;48.224;8.572;2023-07-16T08:04:31;5.55;;;2.50;;
9541;SDS011;4809;48.224;8.572;2023-07-16T08:06:57;4.82;;;2.30;;
9541;SDS011;4809;48.224;8.572;2023-07-16T08:09:23;3.17;;;2.22;;
9541;SDS011;4809;48.224;8.572;2023-07-16T08:11:50;3.55;;;2.03;;
9541;SDS011;4809;48.224;8.572;2023-07-16T08:14:16;4.28;;;2.20;;
9541;SDS011;4809;48.224;8.572;2023-07-16T08:16:42;4.13;;;2.08;;
9541;SDS011;4809;48.224;8.572;2023-07-16T08:19:07;3.30;;;2.30;;
9541;SDS011;4809;48.224;8.572;2023-07-16T08:21:34;3.65;;;2.65;;
9541;SDS011;4809;48.224;8.572;2023-07-16T08:24:00;3.08;;;2.20;;
9541;SDS011;4809;48.224;8.572;2023-07-16T08:26:26;5.22;;;2.35;;
9541;SDS011;4809;48.224;8.572;2023-07-16T08:28:52;3.33;;;2.25;;
9541;SDS011;4809;48.224;8.572;2023-07-16T08:31:17;3.08;;;2.15;;
9541;SDS011;4809;48.224;8.572;2023-07-16T08:33:43;7.30;;;2.40;;
9541;SDS011;4809;48.224;8.572;2023-07-16T08:36:09;2.80;;;2.30;;
9541;SDS011;4809;48.224;8.572;2023-07-16T08:38:35;4.03;;;2.47;;
9541;SDS011;4809;48.224;8.572;2023-07-16T08:41:01;3.90;;;2.15;;
9541;SDS011;4809;48.224;8.572;2023-07-16T08:43:27;2.85;;;2.05;;
9541;SDS011;4809;48.224;8.572;2023-07-16T08:45:54;4.30;;;2.20;;
9541;SDS011;4809;48.224;8.572;2023-07-16T08:48:20;4.20;;;2.53;;
9541;SDS011;4809;48.224;8.572;2023-07-16T08:50:47;2.55;;;2.15;;
9541;SDS011;4809;48.224;8.572;2023-07-16T08:53:17;3.33;;;2.10;;
9541;SDS011;4809;48.224;8.572;2023-07-16T08:55:47;4.22;;;2.40;;
9541;SDS011;4809;48.224;8.572;2023-07-16T08:58:13;4.70;;;2.47;;
9541;SDS011;4809;48.224;8.572;2023-07-16T09:00:45;3.38;;;2.30;;
9541;SDS011;4809;48.224;8.572;2023-07-16T09:03:11;3.83;;;2.25;;
9541;SDS011;4809;48.224;8.572;2023-07-16T09:05:41;4.30;;;2.30;;
9541;SDS011;4809;48.224;8.572;2023-07-16T09:08:08;3.45;;;2.20;;
9541;SDS011;4809;48.224;8.572;2023-07-16T09:10:34;4.40;;;2.47;;
9541;SDS011;4809;48.224;8.572;2023-07-16T09:13:00;3.78;;;2.50;;
9541;SDS011;4809;48.224;8.572;2023-07-16T09:15:27;2.65;;;2.10;;
9541;SDS011;4809;48.224;8.572;2023-07-16T09:17:54;3.50;;;2.30;;
9541;SDS011;4809;48.224;8.572;2023-07-16T09:20:20;3.75;;;2.30;;
9541;SDS011;4809;48.224;8.572;2023-07-16T09:22:48;2.97;;;2.25;;
9541;SDS011;4809;48.224;8.572;2023-07-16T09:25:14;3.92;;;2.30;;
9541;SDS011;4809;48.224;8.572;2023-07-16T09:27:40;2.78;;;2.20;;
9541;SDS011;4809;48.224;8.572;2023-07-16T09:30:06;2.58;;;2.13;;
9541;SDS011;4809;48.224;8.572;2023-07-16T09:32:35;4.10;;;2.40;;
9541;SDS011;4809;48.224;8.572;2023-07-16T09:35:11;3.22;;;2.20;;
9541;SDS011;4809;48.224;8.572;2023-07-16T09:37:38;5.43;;;2.47;;
9541;SDS011;4809;48.224;8.572;2023-07-16T09:40:05;2.78;;;2.17;;
9541;SDS011;4809;48.224;8.572;2023-07-16T09:42:37;5.20;;;2.15;;
9541;SDS011;4809;48.224;8.572;2023-07-16T09:45:08;3.90;;;2.30;;
9541;SDS011;4809;48.224;8.572;2023-07-16T09:47:43;4.05;;;2.60;;
9541;SDS011;4809;48.224;8.572;2023-07-16T09:50:10;4.07;;;2.50;;
9541;SDS011;4809;48.224;8.572;2023-07-16T09:52:36;4.70;;;2.40;;
9541;SDS011;4809;48.224;8.572;2023-07-16T09:55:03;3.85;;;2.22;;
9541;SDS011;4809;48.224;8.572;2023-07-16T09:57:32;3.70;;;2.30;;
9541;SDS011;4809;48.224;8.572;2023-07-16T10:00:03;2.92;;;2.10;;
9541;SDS011;4809;48.224;8.572;2023-07-16T10:02:34;4.22;;;2.38;;
9541;SDS011;4809;48.224;8.572;2023-07-16T10:05:11;3.45;;;2.30;;
9541;SDS011;4809;48.224;8.572;2023-07-16T10:07:51;3.70;;;2.20;;
9541;SDS011;4809;48.224;8.572;2023-07-16T10:10:19;2.80;;;2.05;;
9541;SDS011;4809;48.224;8.572;2023-07-16T10:13:03;4.72;;;3.00;;
9541;SDS011;4809;48.224;8.572;2023-07-16T10:15:29;4.28;;;2.25;;
9541;SDS011;4809;48.224;8.572;2023-07-16T10:17:55;4.32;;;2.50;;
9541;SDS011;4809;48.224;8.572;2023-07-16T10:20:28;3.53;;;2.33;;
9541;SDS011;4809;48.224;8.572;2023-07-16T10:22:58;5.18;;;4.18;;
9541;SDS011;4809;48.224;8.572;2023-07-16T10:25:35;4.93;;;2.53;;
9541;SDS011;4809;48.224;8.572;2023-07-16T10:28:01;3.22;;;2.05;;
9541;SDS011;4809;48.224;8.572;2023-07-16T10:30:27;2.90;;;2.15;;
9541;SDS011;4809;48.224;8.572;2023-07-16T10:32:52;4.07;;;2.40;;
9541;SDS011;4809;48.224;8.572;2023-07-16T10:35:18;5.25;;;2.17;;
9541;SDS011;4809;48.224;8.572;2023-07-16T10:37:44;2.90;;;2.03;;
9541;SDS011;4809;48.224;8.572;2023-07-16T10:40:10;3.28;;;2.00;;
9541;SDS011;4809;48.224;8.572;2023-07-16T10:42:39;5.13;;;2.42;;
9541;SDS011;4809;48.224;8.572;2023-07-16T10:45:08;3.38;;;2.20;;
9541;SDS011;4809;48.224;8.572;2023-07-16T10:47:35;2.63;;;2.00;;
9541;SDS011;4809;48.224;8.572;2023-07-16T10:50:05;3.50;;;2.17;;
9541;SDS011;4809;48.224;8.572;2023-07-16T10:52:33;3.83;;;2.22;;
9541;SDS011;4809;48.224;8.572;2023-07-16T10:54:59;4.93;;;2.20;;
9541;SDS011;4809;48.224;8.572;2023-07-16T10:57:25;3.22;;;2.15;;
9541;SDS011;4809;48.224;8.572;2023-07-16T10:59:52;4.20;;;2.40;;
9541;SDS011;4809;48.224;8.572;2023-07-16T11:02:20;3.67;;;2.40;;
9541;SDS011;4809;48.224;8.572;2023-07-16T11:04:47;3.30;;;2.38;;
9541;SDS011;4809;48.224;8.572;2023-07-16T11:07:14;5.18;;;2.28;;
9541;SDS011;4809;48.224;8.572;2023-07-16T11:09:44;3.85;;;2.28;;
9541;SDS011;4809;48.224;8.572;2023-07-16T11:12:13;3.03;;;2.10;;
9541;SDS011;4809;48.224;8.572;2023-07-16T11:14:43;5.15;;;2.30;;
9541;SDS011;4809;48.224;8.572;2023-07-16T11:17:13;3.10;;;2.15;;
9541;SDS011;4809;48.224;8.572;2023-07-16T11:19:40;6.03;;;4.25;;
9541;SDS011;4809;48.224;8.572;2023-07-16T11:22:09;4.25;;;2.28;;
9541;SDS011;4809;48.224;8.572;2023-07-16T11:27:18;6.53;;;2.40;;
9541;SDS011;4809;48.224;8.572;2023-07-16T11:29:49;4.03;;;2.33;;
9541;SDS011;4809;48.224;8.572;2023-07-16T11:32:31;3.28;;;2.20;;
9541;SDS011;4809;48.224;8.572;2023-07-16T11:35:02;4.68;;;2.20;;
9541;SDS011;4809;48.224;8.572;2023-07-16T11:37:30;4.00;;;2.20;;
9541;SDS011;4809;48.224;8.572;2023-07-16T11:40:05;2.80;;;2.15;;
9541;SDS011;4809;48.224;8.572;2023-07-16T11:42:33;2.67;;;2.20;;
9541;SDS011;4809;48.224;8.572;2023-07-16T11:44:59;4.93;;;2.45;;
9541;SDS011;4809;48.224;8.572;2023-07-16T11:47:26;3.13;;;2.33;;
9541;SDS011;4809;48.224;8.572;2023-07-16T11:49:52;4.88;;;2.40;;
9541;SDS011;4809;48.224;8.572;2023-07-16T11:52:28;6.20;;;2.30;;
9541;SDS011;4809;48.224;8.572;2023-07-16T11:54:55;2.70;;;1.80;;
9541;SDS011;4809;48.224;8.572;2023-07-16T11:57:24;2.45;;;1.90;;
9541;SDS011;4809;48.224;8.572;2023-07-16T11:59:50;3.70;;;1.98;;
9541;SDS011;4809;48.224;8.572;2023-07-16T12:02:16;4.13;;;2.20;;
9541;SDS011;4809;48.224;8.572;2023-07-16T12:04:42;2.35;;;1.98;;
9541;SDS011;4809;48.224;8.572;2023-07-16T12:07:07;3.50;;;2.05;;
9541;SDS011;4809;48.224;8.572;2023-07-16T12:09:33;3.22;;;2.75;;
9541;SDS011;4809;48.224;8.572;2023-07-16T12:11:59;3.40;;;2.47;;
9541;SDS011;4809;48.224;8.572;2023-07-16T12:14:25;3.10;;;2.20;;
9541;SDS011;4809;48.224;8.572;2023-07-16T12:16:51;3.78;;;2.55;;
9541;SDS011;4809;48.224;8.572;2023-07-16T12:19:17;3.25;;;2.15;;
9541;SDS011;4809;48.224;8.572;2023-07-16T12:21:42;3.78;;;2.20;;
9541;SDS011;4809;48.224;8.572;2023-07-16T12:24:08;3.83;;;2.40;;
9541;SDS011;4809;48.224;8.572;2023-07-16T12:26:34;3.53;;;2.17;;
9541;SDS011;4809;48.224;8.572;2023-07-16T12:29:00;3.20;;;2.30;;
9541;SDS011;4809;48.224;8.572;2023-07-16T12:31:27;2.92;;;2.10;;
9541;SDS011;4809;48.224;8.572;2023-07-16T12:33:54;3.35;;;2.08;;
9541;SDS011;4809;48.224;8.572;2023-07-16T12:36:20;3.85;;;2.10;;
9541;SDS011;4809;48.224;8.572;2023-07-16T12:38:46;2.78;;;2.10;;
9541;SDS011;4809;48.224;8.572;2023-07-16T12:41:11;3.80;;;2.25;;
9541;SDS011;4809;48.224;8.572;2023-07-16T12:43:37;4.28;;;2.20;;
9541;SDS011;4809;48.224;8.572;2023-07-16T12:46:03;3.60;;;2.38;;
9541;SDS011;4809;48.224;8.572;2023-07-16T12:48:30;3.50;;;2.17;;
9541;SDS011;4809;48.224;8.572;2023-07-16T12:50:59;3.05;;;2.28;;
9541;SDS011;4809;48.224;8.572;2023-07-16T12:53:25;4.30;;;2.30;;
9541;SDS011;4809;48.224;8.572;2023-07-16T12:55:51;3.25;;;2.33;;
9541;SDS011;4809;48.224;8.572;2023-07-16T12:58:17;2.40;;;2.10;;
9541;SDS011;4809;48.224;8.572;2023-07-16T13:00:42;2.92;;;2.30;;
9541;SDS011;4809;48.224;8.572;2023-07-16T13:03:08;3.63;;;2.15;;
9541;SDS011;4809;48.224;8.572;2023-07-16T13:05:39;4.15;;;2.20;;
9541;SDS011;4809;48.224;8.572;2023-07-16T13:08:05;3.67;;;2.30;;
9541;SDS011;4809;48.224;8.572;2023-07-16T13:10:31;2.97;;;2.08;;
9541;SDS011;4809;48.224;8.572;2023-07-16T13:12:57;3.75;;;3.00;;
9541;SDS011;4809;48.224;8.572;2023-07-16T13:15:22;6.20;;;2.33;;
9541;SDS011;4809;48.224;8.572;2023-07-16T13:17:48;3.15;;;2.05;;
9541;SDS011;4809;48.224;8.572;2023-07-16T13:20:14;3.92;;;2.20;;
9541;SDS011;4809;48.224;8.572;2023-07-16T13:22:39;3.72;;;2.20;;
9541;SDS011;4809;48.224;8.572;2023-07-16T13:25:05;3.45;;;2.15;;
9541;SDS011;4809;48.224;8.572;2023-07-16T13:27:31;3.42;;;2.78;;
9541;SDS011;4809;48.224;8.572;2023-07-16T13:29:57;4.93;;;2.53;;
9541;SDS011;4809;48.224;8.572;2023-07-16T13:32:23;3.53;;;2.60;;
9541;SDS011;4809;48.224;8.572;2023-07-16T13:34:48;4.32;;;2.40;;
9541;SDS011;4809;48.224;8.572;2023-07-16T13:37:14;2.58;;;2.13;;
9541;SDS011;4809;48.224;8.572;2023-07-16T13:39:40;3.25;;;2.25;;
9541;SDS011;4809;48.224;8.572;2023-07-16T13:42:05;4.43;;;2.78;;
9541;SDS011;4809;48.224;8.572;2023-07-16T13:44:32;3.45;;;2.38;;
9541;SDS011;4809;48.224;8.572;2023-07-16T13:46:58;3.58;;;2.47;;
9541;SDS011;4809;48.224;8.572;2023-07-16T13:49:24;2.80;;;2.30;;
9541;SDS011;4809;48.224;8.572;2023-07-16T13:51:49;4.20;;;2.60;;
9541;SDS011;4809;48.224;8.572;2023-07-16T13:54:15;3.65;;;2.60;;
9541;SDS011;4809;48.224;8.572;2023-07-16T13:56:40;3.85;;;2.50;;
9541;SDS011;4809;48.224;8.572;2023-07-16T13:59:06;3.83;;;2.47;;
9541;SDS011;4809;48.224;8.572;2023-07-16T14:01:32;3.25;;;2.28;;
9541;SDS011;4809;48.224;8.572;2023-07-16T14:03:57;3.65;;;2.33;;
9541;SDS011;4809;48.224;8.572;2023-07-16T14:06:23;3.42;;;2.15;;
9541;SDS011;4809;48.224;8.572;2023-07-16T14:08:49;4.28;;;2.50;;
9541;SDS011;4809;48.224;8.572;2023-07-16T14:11:15;4.75;;;2.10;;
9541;SDS011;4809;48.224;8.572;2023-07-16T14:13:43;4.63;;;2.30;;
9541;SDS011;4809;48.224;8.572;2023-07-16T14:16:09;4.55;;;2.30;;
9541;SDS011;4809;48.224;8.572;2023-07-16T14:18:35;3.50;;;2.20;;
9541;SDS011;4809;48.224;8.572;2023-07-16T14:21:00;4.00;;;2.13;;
9541;SDS011;4809;48.224;8.572;2023-07-16T14:23:27;2.40;;;2.20;;
9541;SDS011;4809;48.224;8.572;2023-07-16T14:25:53;3.85;;;2.15;;
9541;SDS011;4809;48.224;8.572;2023-07-16T14:28:19;2.70;;;2.05;;
9541;SDS011;4809;48.224;8.572;2023-07-16T14:30:44;4.93;;;2.40;;
9541;SDS011;4809;48.224;8.572;2023-07-16T14:33:10;2.53;;;2.30;;
9541;SDS011;4809;48.224;8.572;2023-07-16T14:35:35;3.30;;;2.10;;
9541;SDS011;4809;48.224;8.572;2023-07-16T14:38:01;2.85;;;2.28;;
9541;SDS011;4809;48.224;8.572;2023-07-16T14:40:27;3.75;;;2.40;;
9541;SDS011;4809;48.224;8.572;2023-07-16T14:42:52;2.83;;;2.10;;
9541;SDS011;4809;48.224;8.572;2023-07-16T14:45:18;2.50;;;2.22;;
9541;SDS011;4809;48.224;8.572;2023-07-16T14:47:43;4.22;;;2.20;;
9541;SDS011;4809;48.224;8.572;2023-07-16T14:50:09;4.05;;;2.40;;
9541;SDS011;4809;48.224;8.572;2023-07-16T14:52:35;3.67;;;2.50;;
9541;SDS011;4809;48.224;8.572;2023-07-16T14:55:01;4.20;;;2.30;;
9541;SDS011;4809;48.224;8.572;2023-07-16T14:57:29;3.53;;;2.13;;
9541;SDS011;4809;48.224;8.572;2023-07-16T14:59:55;5.05;;;2.35;;
9541;SDS011;4809;48.224;8.572;2023-07-16T15:02:21;3.03;;;2.22;;
9541;SDS011;4809;48.224;8.572;2023-07-16T15:04:47;3.25;;;2.20;;
9541;SDS011;4809;48.224;8.572;2023-07-16T15:07:12;3.47;;;2.30;;
9541;SDS011;4809;48.224;8.572;2023-07-16T15:09:38;3.25;;;2.30;;
9541;SDS011;4809;48.224;8.572;2023-07-16T15:12:05;3.03;;;2.22;;
9541;SDS011;4809;48.224;8.572;2023-07-16T15:14:31;4.32;;;2.30;;
9541;SDS011;4809;48.224;8.572;2023-07-16T15:16:58;2.72;;;2.15;;
9541;SDS011;4809;48.224;8.572;2023-07-16T15:19:23;2.80;;;2.20;;